Data for 04/21/2015

Time Sea-Level Adjusted Pressure Absolute Pressure Temperature Relative Humidity Dew Point   
(mb) (inHg) (mb) (inHg) (C) (F) (%) (C) (F)
00:05 1014 29.94 843 24.89 6.1 43 47 -4.5 24
00:10 1014 29.94 843 24.89 6.1 43.1 44 -5.1 22.8
00:15 1014 29.94 843 24.89 6.4 43.6 44 -4.9 23.2
00:20 1014 29.94 843 24.89 6.4 43.5 45 -4.7 23.5
00:25 1014 29.94 843 24.89 6.5 43.6 45 -4.6 23.7
00:30 1014 29.94 843 24.89 6.3 43.3 44 -5.1 22.8
00:35 1014 29.94 843 24.89 6.6 44 42 -5.3 22.4
00:40 1014 29.94 843 24.89 6.7 44.1 44 -4.6 23.6
00:45 1014 29.94 843 24.89 6.3 43.3 46 -4.5 23.8
00:50 1014 29.94 843 24.89 5.9 42.6 46 -4.8 23.4
00:55 1014 29.94 843 24.89 5.9 42.6 46 -4.8 23.4
01:00 1014 29.94 843 24.89 5.9 42.6 46 -4.8 23.4
01:05 1014 29.94 843 24.89 5.9 42.7 46 -4.8 23.3
01:10 1014 29.94 843 24.89 6 42.7 46 -4.8 23.3
01:15 1014 29.94 843 24.89 5.8 42.4 47 -4.7 23.6
01:20 1014 29.94 843 24.89 5.7 42.2 47 -4.9 23.2
01:25 1014 29.94 843 24.89 5.7 42.3 47 -4.9 23.3
01:30 1014 29.94 843 24.89 5.5 42 48 -4.7 23.5
01:35 1014 29.94 843 24.89 5.4 41.6 48 -4.8 23.4
01:40 1014 29.94 843 24.89 5.3 41.5 48 -4.7 23.5
01:45 1014 29.94 843 24.89 5.3 41.5 48 -4.7 23.5
01:50 1014 29.94 843 24.89 5.2 41.4 48 -4.8 23.3
01:55 1014 29.94 843 24.89 5.2 41.4 49 -4.7 23.6
02:00 1014 29.94 843 24.89 5.1 41.2 49 -4.7 23.6
02:05 1014 29.94 843 24.89 5.1 41.2 49 -4.7 23.5
02:10 1014 29.94 843 24.89 5.2 41.3 48 -4.9 23.3
02:15 1014 29.94 843 24.89 5.2 41.4 48 -4.8 23.3
02:20 1014 29.94 843 24.89 5.4 41.8 48 -4.7 23.5
02:25 1014 29.94 843 24.89 5.3 41.6 49 -4.7 23.6
02:30 1014 29.94 843 24.89 5.3 41.5 49 -4.5 23.9
02:35 1014 29.94 843 24.89 4.9 40.8 52 -4.3 24.3
02:40 1014 29.94 843 24.89 4.5 40.2 51 -4.8 23.3
02:45 1014 29.94 843 24.89 4.9 40.9 50 -4.7 23.6
02:50 1014 29.94 843 24.89 5 41 50 -4.5 23.9
02:55 1014 29.94 843 24.89 4.7 40.4 52 -4.5 24
03:00 1014 29.94 843 24.89 4.5 40.1 51 -4.7 23.5
03:05 1014 29.94 843 24.89 4.6 40.4 51 -4.7 23.6
03:10 1014 29.94 843 24.89 4.8 40.6 51 -4.6 23.7
03:15 1014 29.94 843 24.89 4.8 40.6 50 -4.8 23.4
03:20 1014 29.94 843 24.89 5 40.9 50 -4.7 23.6
03:25 1014 29.94 843 24.89 4.9 40.8 50 -4.7 23.6
03:30 1014 29.94 843 24.89 4.9 40.7 50 -4.7 23.6
03:35 1014 29.94 844 24.92 4.9 40.8 50 -4.7 23.5
03:40 1014 29.94 844 24.92 4.8 40.6 50 -4.7 23.6
03:45 1014 29.94 844 24.92 4.8 40.6 50 -4.7 23.6
03:50 1014 29.94 844 24.92 4.8 40.6 50 -4.8 23.3
03:55 1014 29.94 844 24.92 5.1 41.2 49 -4.8 23.3
04:00 1014 29.94 844 24.92 5.1 41.2 49 -4.7 23.6
04:05 1014 29.94 843 24.89 5 41 50 -4.6 23.8
04:10 1014 29.94 843 24.89 4.9 40.7 50 -4.6 23.7
04:15 1014 29.94 843 24.89 4.8 40.7 50 -4.8 23.4
04:20 1014 29.94 843 24.89 4.9 40.8 50 -4.6 23.8
04:25 1014 29.94 843 24.89 4.7 40.5 51 -4.6 23.7
04:30 1014 29.94 844 24.92 4.5 40.2 52 -4.4 24
04:35 1014 29.94 843 24.89 4.5 40.1 52 -4.6 23.7
04:40 1014 29.94 844 24.92 4.3 39.8 53 -4.4 24.1
04:45 1014 29.94 844 24.92 4.2 39.6 53 -4.6 23.7
04:50 1014 29.94 844 24.92 4.2 39.6 53 -4.5 23.8
04:55 1014 29.94 844 24.92 4.1 39.5 53 -4.6 23.8
05:00 1014 29.94 844 24.92 4 39.2 54 -4.4 24.1
05:05 1014 29.94 844 24.92 3.6 38.5 56 -4.3 24.2
05:10 1014 29.94 844 24.92 3.4 38.1 56 -4.5 24
05:15 1014 29.94 844 24.92 3.3 37.9 57 -4.3 24.2
05:20 1014 29.94 844 24.92 3.1 37.5 58 -4.4 24.1
05:25 1014 29.94 844 24.92 3.1 37.6 58 -4.3 24.2
05:30 1014 29.94 844 24.92 3.2 37.7 57 -4.6 23.7
05:35 1014 29.94 844 24.92 3.5 38.2 56 -4.6 23.8
05:40 1014 29.94 844 24.92 3.7 38.7 54 -4.7 23.5
05:45 1015 29.97 844 24.92 4 39.2 54 -4.6 23.8
05:50 1015 29.97 844 24.92 4.1 39.4 53 -4.6 23.8
05:55 1015 29.97 844 24.92 4.2 39.6 53 -4.4 24.1
06:00 1015 29.97 844 24.92 4.2 39.6 53 -4.4 24
06:05 1015 29.97 844 24.92 4.5 40 52 -4.5 23.8
06:10 1015 29.97 844 24.92 4.7 40.4 51 -4.5 23.9
06:15 1015 29.97 844 24.92 4.9 40.8 51 -4.5 24
06:20 1015 29.97 844 24.92 5 41 51 -4.4 24.2
06:25 1015 29.97 844 24.92 5 41.1 52 -4.1 24.6
06:30 1015 29.97 844 24.92 4.9 40.9 51 -4.3 24.3
06:35 1015 29.97 844 24.92 5.1 41.2 51 -4.2 24.5
06:40 1015 29.97 844 24.92 5.4 41.7 50 -4.3 24.2
06:45 1015 29.97 844 24.92 5.8 42.5 48 -4.4 24
06:50 1015 29.97 844 24.92 6.2 43.2 46 -4.4 24
06:55 1015 29.97 844 24.92 6.5 43.7 47 -4 24.8
07:00 1015 29.97 844 24.92 6.8 44.2 47 -3.7 25.4
07:05 1015 29.97 844 24.92 7 44.6 47 -3.5 25.7
07:10 1015 29.97 844 24.92 7 44.7 46 -3.7 25.3
07:15 1015 29.97 844 24.92 7.2 44.9 46 -3.7 25.3
07:20 1015 29.97 844 24.92 7.6 45.7 42 -4.6 23.7
07:25 1015 29.97 844 24.92 8 46.4 41 -4.3 24.2
07:30 1015 29.97 844 24.92 8.3 47 42 -3.8 25.2
07:35 1015 29.97 844 24.92 8.9 48 40 -4 24.7
07:40 1015 29.97 844 24.92 8.9 48 40 -3.9 25
07:45 1015 29.97 844 24.92 9.5 49.1 37 -4.3 24.3
07:50 1015 29.97 844 24.92 9.7 49.4 36 -4.5 23.9
07:55 1015 29.97 844 24.92 10.3 50.5 34 -4.9 23.2
08:00 1015 29.97 844 24.92 10.7 51.3 34 -4.5 23.9
08:05 1015 29.97 844 24.92 11.1 52.1 33 -4.4 24
08:10 1015 29.97 844 24.92 11.2 52.2 33 -4.4 24.1
08:15 1015 29.97 844 24.92 11.4 52.5 32 -4.5 23.9
08:20 1015 29.97 844 24.92 11.6 52.8 33 -4.3 24.2
08:25 1015 29.97 844 24.92 11.3 52.4 33 -4.3 24.2
08:30 1015 29.97 844 24.92 11 51.8 33 -4.5 23.9
08:35 1015 29.97 844 24.92 11.2 52.2 33 -4.6 23.7
08:40 1015 29.97 844 24.92 11.7 53 31 -4.7 23.5
08:45 1015 29.97 844 24.92 12.4 54.2 31 -4.3 24.2
08:50 1015 29.97 844 24.92 13 55.3 29 -4.7 23.5
08:55 1015 29.97 844 24.92 13.5 56.2 28 -4.5 24
09:00 1015 29.97 844 24.92 13.8 56.9 28 -4.4 24.1
09:05 1015 29.97 844 24.92 13.9 56.9 28 -4.4 24.1
09:10 1015 29.97 844 24.92 14.5 58.2 27 -4.4 24.1
09:15 1015 29.97 844 24.92 14.5 58.2 27 -4.1 24.6
09:20 1015 29.97 844 24.92 14.2 57.6 27 -4.5 24
09:25 1015 29.97 844 24.92 13.8 56.8 29 -3.8 25.2
09:30 1015 29.97 844 24.92 14.1 57.5 27 -4.4 24.1
09:35 1015 29.97 844 24.92 14.5 58.1 28 -3.9 24.9
09:40 1015 29.97 844 24.92 14.6 58.2 28 -3.6 25.5
09:45 1015 29.97 844 24.92 14.8 58.6 28 -3.5 25.7
09:50 1015 29.97 844 24.92 14.7 58.4 28 -3.6 25.6
09:55 1015 29.97 844 24.92 14.9 58.7 26 -4.3 24.3
10:00 1015 29.97 844 24.92 15.4 59.6 26 -3.8 25.1
10:05 1015 29.97 844 24.92 15.4 59.6 26 -3.9 25
10:10 1015 29.97 844 24.92 15.3 59.5 27 -3.4 25.8
10:15 1015 29.97 844 24.92 14.3 57.8 28 -3.6 25.5
10:20 1015 29.97 844 24.92 15 58.9 27 -4 24.8
10:25 1015 29.97 844 24.92 15.8 60.5 26 -3.7 25.4
10:30 1015 29.97 844 24.92 16.2 61.1 26 -3.4 25.9
10:35 1015 29.97 844 24.92 15.7 60.3 26 -3.8 25.1
10:40 1015 29.97 844 24.92 15.5 59.8 25 -4.4 24.1
10:45 1015 29.97 844 24.92 16.4 61.5 25 -3.8 25.2
10:50 1015 29.97 844 24.92 16.8 62.3 24 -4 24.8
10:55 1015 29.97 844 24.92 17.1 62.7 23 -4.1 24.6
11:00 1015 29.97 844 24.92 16.7 62.1 24 -4 24.8
11:05 1015 29.97 844 24.92 16.7 62 23 -4.2 24.4
11:10 1015 29.97 844 24.92 16.7 62 25 -3.6 25.6
11:15 1015 29.97 844 24.92 16.8 62.3 24 -3.9 24.9
11:20 1015 29.97 844 24.92 17.8 64.1 21 -4.5 23.8
11:25 1015 29.97 844 24.92 17.1 62.8 24 -3.7 25.3
11:30 1015 29.97 844 24.92 17.1 62.7 21 -5.1 22.8
11:35 1015 29.97 844 24.92 17.2 62.9 20 -5.6 22
11:40 1015 29.97 844 24.92 16.4 61.4 22 -5.3 22.5
11:45 1015 29.97 844 24.92 17.5 63.5 20 -5.4 22.4
11:50 1015 29.97 844 24.92 17.3 63.1 23 -3.9 25
11:55 1015 29.97 844 24.92 16.7 62.1 23 -4.7 23.6
12:00 1015 29.97 844 24.92 17.4 63.3 21 -4.9 23.1
12:05 1015 29.97 844 24.92 17.6 63.7 21 -5.1 22.8
12:10 1015 29.97 844 24.92 18.3 64.9 21 -4.3 24.2
12:15 1015 29.97 844 24.92 18.4 65.2 20 -4.8 23.4
12:20 1015 29.97 844 24.92 18.7 65.7 20 -4.7 23.5
12:25 1014 29.94 844 24.92 18.7 65.6 20 -4.6 23.7
12:30 1014 29.94 844 24.92 18.3 65 20 -4.9 23.1
12:35 1014 29.94 844 24.92 18.5 65.3 20 -5 23
12:40 1014 29.94 843 24.89 17.9 64.2 21 -4.6 23.7
12:45 1014 29.94 843 24.89 18 64.5 20 -5.2 22.6
12:50 1014 29.94 843 24.89 17.8 64.1 20 -5.6 21.9
12:55 1014 29.94 843 24.89 18.8 65.8 18 -5.6 22
13:00 1014 29.94 843 24.89 19.1 66.4 19 -5 23.1
13:05 1014 29.94 843 24.89 19.4 66.8 17 -6 21.2
13:10 1014 29.94 843 24.89 19.3 66.7 17 -6.3 20.7
13:15 1014 29.94 843 24.89 19 66.3 18 -5.4 22.3
13:20 1014 29.94 843 24.89 18.9 65.9 19 -5.4 22.3
13:25 1014 29.94 843 24.89 19.2 66.6 17 -6.2 20.8
13:30 1014 29.94 843 24.89 19.5 67.1 18 -5.6 21.9
13:35 1014 29.94 843 24.89 19.7 67.4 17 -5.7 21.8
13:40 1014 29.94 843 24.89 19.4 66.9 17 -6.1 21.1
13:45 1014 29.94 843 24.89 18.8 65.9 18 -5.7 21.8
13:50 1014 29.94 843 24.89 19.3 66.7 18 -5.3 22.4
13:55 1014 29.94 843 24.89 19.6 67.3 16 -6.5 20.3
14:00 1014 29.94 843 24.89 19.2 66.5 19 -5.1 22.8
14:05 1014 29.94 843 24.89 19.4 66.9 17 -6.2 20.8
14:10 1014 29.94 843 24.89 19.5 67.1 18 -5.4 22.2
14:15 1014 29.94 843 24.89 19.5 67.2 17 -6.2 20.8
14:20 1014 29.94 843 24.89 19.6 67.2 17 -5.8 21.6
14:25 1014 29.94 843 24.89 19.4 66.9 17 -6.2 20.8
14:30 1014 29.94 843 24.89 18.9 66 18 -5.6 21.9
14:35 1014 29.94 843 24.89 19.6 67.4 18 -5.3 22.4
14:40 1014 29.94 843 24.89 19.6 67.3 17 -6 21.2
14:45 1013 29.91 843 24.89 18.9 66 19 -5.2 22.6
14:50 1013 29.91 843 24.89 19.1 66.5 17 -6 21.1
14:55 1013 29.91 843 24.89 18.5 65.3 19 -5.6 21.8
15:00 1013 29.91 843 24.89 19.5 67.1 16 -6.8 19.8
15:05 1013 29.91 842 24.86 18.8 65.8 19 -5.5 22.1
15:10 1013 29.91 842 24.86 17.9 64.2 19 -5.7 21.7
15:15 1013 29.91 842 24.86 19.4 67 18 -5.7 21.7
15:20 1013 29.91 842 24.86 19.9 67.8 18 -4.8 23.3
15:25 1013 29.91 842 24.86 19.9 67.7 18 -5 22.9
15:30 1013 29.91 842 24.86 19.2 66.6 18 -5.5 22.1
15:35 1013 29.91 842 24.86 19.2 66.5 18 -5.9 21.4
15:40 1013 29.91 842 24.86 19.7 67.5 17 -5.8 21.5
15:45 1013 29.91 842 24.86 19.8 67.6 15 -7.6 18.3
15:50 1013 29.91 842 24.86 19.4 66.9 17 -6.4 20.5
15:55 1013 29.91 842 24.86 19.1 66.4 16 -7.5 18.5
16:00 1013 29.91 842 24.86 19.3 66.7 18 -5.8 21.6
16:05 1013 29.91 842 24.86 19.7 67.4 15 -7.5 18.6
16:10 1013 29.91 842 24.86 19.8 67.6 14 -8.4 16.9
16:15 1013 29.91 842 24.86 19.5 67 14 -8.6 16.6
16:20 1013 29.91 842 24.86 19.7 67.5 14 -8.3 17
16:25 1013 29.91 842 24.86 19.8 67.6 15 -7.9 17.8
16:30 1013 29.91 842 24.86 20 68 14 -7.8 17.9
16:35 1013 29.91 842 24.86 20.1 68.1 14 -7.9 17.7
16:40 1013 29.91 842 24.86 19.6 67.3 15 -7.5 18.4
16:45 1013 29.91 842 24.86 19.3 66.7 16 -6.7 20
16:50 1013 29.91 842 24.86 19.1 66.3 15 -7.7 18.2
16:55 1013 29.91 842 24.86 19.4 66.9 15 -7.7 18.1
17:00 1013 29.91 842 24.86 19.3 66.8 15 -7.7 18.2
17:05 1013 29.91 842 24.86 19.3 66.7 15 -8 17.6
17:10 1013 29.91 842 24.86 19.3 66.8 15 -7.7 18.1
17:15 1013 29.91 842 24.86 19.1 66.4 15 -8.3 17.1
17:20 1013 29.91 842 24.86 19.2 66.5 15 -8 17.6
17:25 1013 29.91 842 24.86 19.3 66.7 15 -7.7 18.1
17:30 1013 29.91 842 24.86 19.3 66.8 15 -7.6 18.3
17:35 1012 29.88 842 24.86 19.3 66.8 15 -7.8 17.9
17:40 1012 29.88 842 24.86 18.2 64.7 19 -6 21.2
17:45 1012 29.88 842 24.86 17.8 64.1 17 -7.4 18.7
17:50 1012 29.88 842 24.86 17.9 64.1 17 -7.5 18.4
17:55 1012 29.88 842 24.86 17.7 63.9 17 -7.2 19
18:00 1012 29.88 842 24.86 17.7 63.9 16 -8.4 16.9
18:05 1012 29.88 842 24.86 17.8 64.1 16 -8.5 16.7
18:10 1012 29.88 841 24.83 17.5 63.4 17 -7.6 18.3
18:15 1012 29.88 841 24.83 17.6 63.7 17 -7.8 17.9
18:20 1012 29.88 841 24.83 17.7 63.9 17 -7.8 18
18:25 1012 29.88 841 24.83 17.6 63.8 18 -6.9 19.6
18:30 1012 29.88 841 24.83 17.6 63.6 18 -7.1 19.2
18:35 1012 29.88 841 24.83 17.6 63.6 18 -7 19.4
18:40 1012 29.88 841 24.83 17.4 63.4 18 -7.1 19.3
18:45 1012 29.88 841 24.83 17.3 63.2 17 -7.7 18.1
18:50 1012 29.88 841 24.83 17.1 62.8 18 -7.7 18.2
18:55 1012 29.88 841 24.83 16.8 62.2 18 -7.5 18.4
19:00 1012 29.88 841 24.83 16.7 62 18 -7.3 18.8
19:05 1012 29.88 841 24.83 16.6 61.8 19 -7.3 18.8
19:10 1012 29.88 841 24.83 16.4 61.4 20 -6.7 19.9
19:15 1012 29.88 841 24.83 16.1 61 20 -7.1 19.2
19:20 1012 29.88 841 24.83 16.1 61 20 -6.8 19.7
19:25 1012 29.88 841 24.83 15.9 60.6 21 -6.4 20.5
19:30 1012 29.88 841 24.83 15.4 59.7 24 -4.8 23.4
19:35 1012 29.88 842 24.86 14.5 58.2 27 -4.4 24.1
19:40 1012 29.88 842 24.86 14.3 57.8 27 -4.4 24
19:45 1012 29.88 842 24.86 14.2 57.6 28 -4 24.8
19:50 1012 29.88 842 24.86 13.8 56.9 29 -3.8 25.2
19:55 1012 29.88 842 24.86 13.5 56.4 30 -3.7 25.4
20:00 1012 29.88 842 24.86 13.4 56.1 30 -3.7 25.4
20:05 1013 29.91 842 24.86 13.3 56 31 -3.6 25.6
20:10 1013 29.91 842 24.86 12.9 55.3 32 -3.3 26
20:15 1013 29.91 842 24.86 12.7 54.9 31 -3.8 25.2
20:20 1013 29.91 842 24.86 13 55.4 30 -4 24.9
20:25 1013 29.91 842 24.86 13.2 55.7 31 -3.7 25.3
20:30 1013 29.91 842 24.86 13.2 55.7 31 -3.7 25.3
20:35 1013 29.91 842 24.86 13.2 55.7 31 -3.7 25.4
20:40 1013 29.91 842 24.86 13.2 55.7 31 -3.7 25.3
20:45 1013 29.91 842 24.86 13 55.4 31 -3.7 25.4
20:50 1013 29.91 842 24.86 13 55.3 31 -3.8 25.2
20:55 1013 29.91 842 24.86 13.1 55.5 31 -3.7 25.3
21:00 1013 29.91 842 24.86 13 55.3 31 -3.7 25.3
21:05 1013 29.91 842 24.86 12.8 55.1 32 -3.6 25.6
21:10 1013 29.91 842 24.86 12.7 54.9 31 -3.7 25.3
21:15 1013 29.91 842 24.86 12.7 54.9 32 -3.7 25.4
21:20 1013 29.91 842 24.86 12.7 54.9 31 -3.8 25.2
21:25 1013 29.91 842 24.86 12.8 55.1 31 -3.8 25.2
21:30 1013 29.91 842 24.86 12.8 55 31 -3.7 25.3
21:35 1013 29.91 842 24.86 12.8 55 32 -3.7 25.4
21:40 1013 29.91 842 24.86 12.6 54.7 32 -3.5 25.6
21:45 1013 29.91 842 24.86 12.3 54.2 33 -3.4 25.9
21:50 1013 29.91 842 24.86 12.1 53.7 34 -3.5 25.8
21:55 1013 29.91 842 24.86 12 53.6 34 -3.3 26.1
22:00 1013 29.91 842 24.86 11.8 53.3 35 -3.2 26.3
22:05 1013 29.91 842 24.86 11.6 52.9 36 -3.1 26.5
22:10 1013 29.91 842 24.86 11.5 52.8 36 -3 26.6
22:15 1013 29.91 842 24.86 11.6 52.8 36 -3 26.7
22:20 1013 29.91 842 24.86 11.6 52.9 36 -3 26.5
22:25 1013 29.91 842 24.86 11.8 53.2 35 -3 26.6
22:30 1013 29.91 842 24.86 11.8 53.3 35 -3.1 26.4
22:35 1013 29.91 842 24.86 11.8 53.2 35 -2.9 26.7
22:40 1012 29.88 842 24.86 11.7 53 37 -2.7 27.2
22:45 1013 29.91 842 24.86 11.3 52.3 37 -2.8 27
22:50 1013 29.91 842 24.86 11 51.8 38 -2.8 27
22:55 1013 29.91 842 24.86 10.9 51.5 39 -2.6 27.3
23:00 1013 29.91 842 24.86 10.8 51.4 39 -2.5 27.4
23:05 1013 29.91 842 24.86 10.8 51.4 40 -2.3 27.8
23:10 1013 29.91 842 24.86 10.6 51.1 40 -2.4 27.7
23:15 1012 29.88 842 24.86 10.6 51.1 40 -2.5 27.5
23:20 1013 29.91 842 24.86 10.9 51.6 39 -2.5 27.5
23:25 1013 29.91 842 24.86 10.9 51.6 39 -2.5 27.5
23:30 1012 29.88 842 24.86 11 51.7 39 -2.5 27.4
23:35 1012 29.88 842 24.86 11 51.8 39 -2.5 27.5
23:40 1012 29.88 842 24.86 10.9 51.7 39 -2.4 27.7
23:45 1012 29.88 842 24.86 10.7 51.3 40 -2.4 27.6
23:50 1012 29.88 842 24.86 10.6 51.1 40 -2.4 27.7
23:55 1012 29.88 842 24.86 10.6 51 40 -2.5 27.5
24:00 1012 29.88 842 24.86 10.6 51.1 40 -2.4 27.7